Aktualne dane pomiarowe

Uwaga, wersja testowa! Automatyczne pobieranie danych za pomocą narzędzi lub skryptów to umożliwiających jest zabronione.

Dane meteo z obszaru Polski uzyskane na podstawie depesz SYNOP pobieranych co godzinę z NWS. Najedź myszką na symbol przedstawiony w tabeli, aby uzyskać informacje co do jego znaczenia. Prosimy pamiętać, że to testowa wersja strony, która jeszcze nie jest ukończona. Stworzono również jest krótki FAQ dotyczący korzystania z tej podstrony Anomalie temperatury w chwili obecnej odniesione są do okresu referencyjnego 1951-2016. Okres ten będzie później zmieniony na 1981-2010. Kliknij ikonę aby pobrać plik CSV. Kliknij ikonę aby wygenerować mapę synoptyczną dla danego terminu.

Wybierz Datę:    

        

Włodawa (12497)

Dane terminowe dla wybranej stacji. Kliknij datę, aby otrzymać dane z tego terminu dla wszystkich stacji.

TemperaturaZachmurzenieWiatrCiśnienieOpadyPogoda
 Data t td wb tx tn tg rh  Nt Nl Cl Cm Ch ws wd g1 g2 wx mslp ppp ch 24h 12h t ww ww w1 w2  
2019-06-19 23:00:00 18.8 17.5 17.9--- 9218.0wx-wxwx2wx---1012.7 991.8 -0.7---------
2019-06-19 22:00:00 19.5 17.8 18.3--- 9020.0wx-wxwx2wx---1013.2 992.3 -0.4---------
2019-06-19 21:00:00 20.3 18.1 18.7--- 8720.0wx-wxwx3wx--31013.0 992.2 0.2---------
2019-06-19 20:00:00 21.7 18.1 19.2--- 8020.0wx-wxwx3wx--31013.2 992.5 0.0---------
2019-06-19 19:00:00 22.8 18.8 20.0--- 7820.0wxwxwxwxwx3wx--31013.3 992.7 0.3---------
2019-06-19 18:00:00 24.0 18.2 20.0 28.3 23.0- 7020.0wxwxwxwxwx2wx-821012.5 992.0 -1.2- 0.312wx-w1--
2019-06-19 17:00:00 24.2 18.8 20.5--- 7220.0wxwxwxwx2wx--21013.0 992.5 -1.0---wx---
2019-06-19 16:00:00 23.9 19.8 21.0--- 7820.0wxwxwxwxwx1wx--11012.9 992.4 -1.3---wx-w1w2--
2019-06-19 15:00:00 24.1 17.8 19.8--- 6820.0wxwxwxwx2wx---1013.7 993.2 -0.6---wx---
2019-06-19 14:00:00 25.9 15.9 19.4--- 5420.0wxwxwxwx4wx--41013.9 993.5 -1.0---------
2019-06-19 13:00:00 26.5 15.5 19.4--- 5120.0wxwxwxwxwx4wx-841014.1 993.7 -1.2---------
2019-06-19 12:00:00 27.7 15.4 19.8--- 4720.0wxwxwxwxwx4wx-1241014.1 993.8 -1.6- 0.06------
2019-06-19 11:00:00 26.5 14.6 19.0--- 4820.0wxwxwxwx4wx121241014.9 994.5 -1.2---------
2019-06-19 10:00:00 26.8 14.5 19.0--- 4720.0wxwxwxwxwx4wx--41015.3 994.9 -1.0---------
2019-06-19 09:00:00 26.5 14.3 18.8--- 4720.0wxwxwxwxwx5wx-851015.8 995.4 -0.9---------
2019-06-19 08:00:00 25.2 13.4 17.9--- 4820.0wxwxwxwxwx5wx---1016.2 995.7 -0.5---------
2019-06-19 07:00:00 24.2 14.0 17.8--- 5320.0wx-wxwx5wx--51016.5 995.9 -0.4---------
2019-06-19 06:00:00 23.0 14.8 17.7 23.3 15.2 13 6020.0wx-wxwx4wx--41017.0 996.3 0.1- 0.012----- 10.4
2019-06-19 05:00:00 20.5 15.1 16.9--- 7120.0wx-wxwx3wx--31017.1 996.2 -0.2---------
2019-06-19 04:00:00 18.2 15.8 16.5--- 8620.0wx-wxwx3wx--31017.3 996.3 -0.4---------
2019-06-19 03:00:00 15.6 14.5 14.8--- 9320.0wx-wx1wx---1017.4 996.2 -0.8---------
2019-06-19 02:00:00 15.6 14.3 14.7--- 9220.0wx-wx2wx--21017.6 996.4 -0.6---------
2019-06-19 01:00:00 16.0 14.5 14.9--- 9120.0wx-wx2wx--21017.9 996.7 -0.8---------
2019-06-19 00:00:00 16.0 14.9 15.2--- 9315.0wx-wxwx2wx--21018.2 997.0 -0.4- 0.06------
2019-06-18 23:00:00 16.9 15.4 15.8--- 9120.0wx-wx2wx--21018.1 997.0 -0.1---------
2019-06-18 22:00:00 17.4 15.0 15.7--- 8620.0wx-wx1wx---1018.6 997.5 0.4---------
2019-06-18 21:00:00 17.9 15.2 16.0--- 8420.0wx-wx0---01018.5 997.4 0.7---------
2019-06-18 20:00:00 19.1 15.2 16.4--- 7820.0wxwxwxwx2wx--21018.1 997.1 0.2---------
2019-06-18 19:00:00 21.0 15.3 17.2--- 7020.0wxwxwxwx2wx--21017.9 997.1 0.0---------
2019-06-18 18:00:00 23.3 15.9 18.4 27.1 18.8- 6320.0wx-wxwx2wx--21017.4 996.7 -0.5- 0.012------
2019-06-18 17:00:00 25.0 13.2 17.7--- 4820.0wxwxwxwxwx2wx---1017.5 996.9 -0.9---------
2019-06-18 16:00:00 26.3 12.4 17.8--- 4220.0wxwxwxwxwx3wx--31017.6 997.1 -1.2---------
2019-06-18 15:00:00 26.1 11.8 17.5--- 4120.0wxwxwxwx3wx---1017.7 997.2 -1.6---------
2019-06-18 14:00:00 26.9 11.8 17.8--- 3920.0wxwxwxwx1wx--11018.2 997.8 -1.2---------
2019-06-18 13:00:00 26.1 11.1 17.1--- 3920.0wxwxwxwx2wx--21018.8 998.3 -1.1---------
2019-06-18 12:00:00 25.0 12.2 17.2--- 4520.0wxwxwxwx2wx--21019.4 998.8 -0.9- 0.06------
2019-06-18 11:00:00 25.5 13.7 18.1--- 4820.0wxwxwxwx2wx--21019.6 999.0 -1.0---------
2019-06-18 10:00:00 25.4 13.9 18.2--- 4920.0wxwxwxwx2wx--21020.0 999.4 -0.7---------
2019-06-18 09:00:00 23.8 14.5 17.9--- 5620.0wxwxwxwx2wx--21020.4 999.7 -0.4---------
2019-06-18 08:00:00 22.7 14.8 17.6--- 6120.0wxwxwxwxwx2wx--21020.81000.0 0.3---------
2019-06-18 07:00:00 21.1 15.4 17.3--- 7020.0wxwxwxwxwx3wx---1021.01000.1 0.5---------
2019-06-18 06:00:00 18.8 14.5 15.9 20.9 16.9 17 7620.0wxwxwxwx1wx-811021.21000.1 0.7- 0.012----- 5.2
2019-06-18 05:00:00 18.0 14.1 15.4--- 7820.0wxwxwxwxwx3wx--31020.8 999.7 0.4---------
2019-06-18 04:00:00 17.2 13.9 15.0--- 8120.0wxwxwxwx2wx--21020.8 999.6 0.4---------
2019-06-18 03:00:00 17.0 13.7 14.8--- 8120.0wxwxwxwx2wx--21020.6 999.4 0.1---------
2019-06-18 02:00:00 17.1 14.0 15.0--- 8220.0wx-wxwx2wx---1020.5 999.3 0.0---------
2019-06-18 01:00:00 17.7 14.6 15.6--- 8220.0wx-wxwx3wx---1020.3 999.2 0.0---------
2019-06-18 00:00:00 17.7 14.8 15.7--- 8320.0wx-wxwx2wx--21020.4 999.3 0.3- 0.06------
2.8 ms

 

Print Friendly, PDF & Email